This is the latest recevied weather packets stored in our database for station/object W4NDF-13. If no packets are shown the sender has not sent any weather packets the latest 10 day(s).
| Time | Temp. | Humidity | Pressure | Rain* | Wind** | Luminosity | Snow |
|---|---|---|---|---|---|---|---|
| 1777908964 | 23.89° C | 45% | 1019.1 hPa | 0 mm | - | 650 W/m² | - |
| 1777908662 | 24.44° C | 45% | 1019.1 hPa | 0 mm | - | 641 W/m² | - |
| 1777908358 | 23.89° C | 46% | 1018.9 hPa | 0 mm | - | 627 W/m² | - |
| 1777908055 | 23.33° C | 46% | 1018.9 hPa | 0 mm | - | 617 W/m² | - |
| 1777907750 | 23.89° C | 43% | 1019 hPa | 0 mm | - | 606 W/m² | - |
| 1777907445 | 23.33° C | 47% | 1019.2 hPa | 0 mm | - | 596 W/m² | - |
| 1777907142 | 23.33° C | 46% | 1019 hPa | 0 mm | - | 587 W/m² | - |
| 1777906840 | 23.33° C | 44% | 1019 hPa | 0 mm | - | 572 W/m² | - |
| 1777906537 | 23.33° C | 46% | 1018.8 hPa | 0 mm | - | 407 W/m² | - |
| 1777906232 | 22.78° C | 53% | 1019.1 hPa | 0 mm | - | 449 W/m² | - |
| 1777905929 | 22.78° C | 52% | 1019.1 hPa | 0 mm | - | 526 W/m² | - |
| 1777905626 | 22.22° C | 50% | 1019.1 hPa | 0 mm | - | 515 W/m² | - |
| 1777905323 | 22.22° C | 49% | 1019 hPa | 0 mm | - | 497 W/m² | - |
| 1777905021 | 22.78° C | 49% | 1019.1 hPa | 0 mm | - | 482 W/m² | - |
| 1777904718 | 23.33° C | 47% | 1019 hPa | 0 mm | - | 469 W/m² | - |
| 1777904415 | 22.22° C | 48% | 1019.1 hPa | 0 mm | - | 455 W/m² | - |
| 1777904111 | 22.78° C | 50% | 1019 hPa | 0 mm | - | 438 W/m² | - |
| 1777903808 | 23.33° C | 51% | 1018.9 hPa | 0 mm | - | 422 W/m² | - |
| 1777903505 | 23.89° C | 50% | 1019 hPa | 0 mm | - | 404 W/m² | - |
| 1777903201 | 21.67° C | 55% | 1018.9 hPa | 0 mm | - | 389 W/m² | - |
| 1777902897 | 22.22° C | 55% | 1019.1 hPa | 0 mm | - | 371 W/m² | - |
| 1777902594 | 21.11° C | 57% | 1019.1 hPa | 0 mm | - | 355 W/m² | - |
| 1777902292 | 21.67° C | 57% | 1019.1 hPa | 0 mm | - | 337 W/m² | - |
| 1777901989 | 21.67° C | 59% | 1019.1 hPa | 0 mm | - | 320 W/m² | - |
| 1777901687 | 21.11° C | 59% | 1019 hPa | 0 mm | - | 309 W/m² | - |
* Rain latest hour (hover to see other rain measurements)
** Current wind speed in m/s (hover to see current wind gust speed)